createdAt,value
2022-12-11T00:04:26.766Z,19.10
2022-12-11T00:09:30.155Z,19.10
2022-12-11T00:14:35.234Z,19.10
2022-12-11T00:19:38.657Z,19.10
2022-12-11T00:24:42.034Z,19.20
2022-12-11T00:29:47.040Z,19.20
2022-12-11T00:34:50.421Z,19.30
2022-12-11T00:39:53.796Z,19.30
2022-12-11T00:44:58.701Z,19.20
2022-12-11T00:50:02.849Z,19.20
2022-12-11T00:55:07.043Z,19.30
2022-12-11T01:00:13.877Z,19.30
2022-12-11T01:05:17.613Z,19.40
2022-12-11T01:10:27.016Z,19.30
2022-12-11T01:15:35.571Z,19.40
2022-12-11T01:20:43.112Z,19.40
2022-12-11T01:25:46.568Z,19.40
2022-12-11T01:30:51.391Z,19.40
2022-12-11T01:35:54.973Z,19.30
2022-12-11T01:40:58.371Z,19.30
2022-12-11T01:46:03.352Z,19.30
2022-12-11T01:51:07.393Z,19.20
2022-12-11T01:56:11.482Z,19.10
2022-12-11T02:01:20.313Z,19.10
2022-12-11T02:06:32.639Z,19.10
2022-12-11T02:11:42.447Z,19.10
2022-12-11T02:16:52.665Z,19.10
2022-12-11T02:21:57.226Z,19.10
2022-12-11T02:27:21.088Z,19.10
2022-12-11T02:32:27.966Z,19.10
2022-12-11T02:37:32.698Z,19.00
2022-12-11T02:42:37.018Z,19.00
2022-12-11T02:47:42.073Z,19.10
2022-12-11T02:52:46.181Z,19.00
2022-12-11T02:57:52.757Z,18.90
2022-12-11T03:02:58.135Z,19.00
2022-12-11T03:08:01.632Z,19.00
2022-12-11T03:13:05.737Z,19.10
2022-12-11T03:18:15.441Z,18.90
2022-12-11T03:23:23.690Z,19.00
2022-12-11T03:28:30.518Z,19.10
2022-12-11T03:33:37.944Z,19.10
2022-12-11T03:38:44.895Z,19.00
2022-12-11T03:43:49.857Z,19.00
2022-12-11T03:48:55.853Z,19.20
2022-12-11T03:53:59.614Z,19.10
2022-12-11T03:59:03.227Z,19.20
2022-12-11T04:04:08.279Z,19.10
2022-12-11T04:09:11.780Z,19.10
2022-12-11T04:14:33.019Z,19.20
2022-12-11T04:19:55.338Z,19.00
2022-12-11T04:24:58.777Z,19.00
2022-12-11T04:30:02.284Z,19.00
2022-12-11T04:35:08.548Z,18.90
2022-12-11T04:40:14.965Z,19.00
2022-12-11T04:45:18.606Z,18.90
2022-12-11T04:50:23.560Z,18.90
2022-12-11T04:55:27.127Z,18.90
2022-12-11T05:00:30.690Z,18.90
2022-12-11T05:05:35.855Z,18.80
2022-12-11T05:10:39.356Z,18.80
2022-12-11T05:15:42.905Z,18.90
2022-12-11T05:20:56.516Z,18.80
2022-12-11T05:26:01.402Z,18.80
2022-12-11T05:31:07.557Z,18.80
2022-12-11T05:36:16.922Z,18.80
2022-12-11T05:41:22.556Z,18.80
2022-12-11T05:46:27.673Z,18.90
2022-12-11T05:51:34.400Z,18.80
2022-12-11T05:56:38.201Z,18.80
2022-12-11T06:01:43.649Z,18.70
2022-12-11T06:06:48.568Z,18.80
2022-12-11T06:11:52.107Z,18.80
2022-12-11T06:16:55.511Z,18.80
2022-12-11T06:22:00.317Z,18.70
2022-12-11T06:27:03.719Z,18.70
2022-12-11T06:32:07.182Z,18.70
2022-12-11T06:37:12.015Z,18.70
2022-12-11T06:42:16.814Z,18.80
2022-12-11T06:47:20.222Z,18.70
2022-12-11T06:52:26.844Z,18.70
2022-12-11T06:57:30.209Z,18.60
2022-12-11T07:02:33.665Z,18.70
2022-12-11T07:07:38.495Z,18.60
2022-12-11T07:12:41.891Z,18.70
2022-12-11T07:17:45.289Z,18.70
2022-12-11T07:22:50.051Z,18.80
2022-12-11T07:27:53.426Z,18.70
2022-12-11T07:32:56.844Z,18.70
2022-12-11T07:38:01.645Z,18.80
2022-12-11T07:43:05.172Z,18.80
2022-12-11T07:48:08.581Z,18.70
2022-12-11T07:53:13.373Z,18.70
2022-12-11T07:58:16.790Z,18.70
2022-12-11T08:03:20.782Z,18.70
2022-12-11T08:08:25.644Z,18.70
2022-12-11T08:13:29.062Z,18.70
2022-12-11T08:18:32.458Z,18.70
2022-12-11T08:23:37.425Z,18.80
2022-12-11T08:28:40.873Z,18.80
2022-12-11T08:33:44.637Z,18.80
2022-12-11T08:38:49.735Z,18.70
2022-12-11T08:43:55.369Z,18.70
2022-12-11T08:48:59.450Z,18.70
2022-12-11T08:54:04.446Z,18.70
2022-12-11T08:59:07.906Z,18.50
2022-12-11T09:04:11.383Z,18.30
2022-12-11T09:09:16.433Z,18.60
2022-12-11T09:14:19.999Z,18.50
2022-12-11T09:19:27.844Z,18.60
2022-12-11T09:24:35.646Z,18.60
2022-12-11T09:29:40.086Z,18.40
2022-12-11T09:34:43.531Z,18.30
2022-12-11T09:39:48.591Z,18.40
2022-12-11T09:44:53.344Z,18.40
2022-12-11T09:50:03.609Z,18.60
2022-12-11T09:55:15.204Z,18.50
2022-12-11T10:00:23.380Z,18.60
2022-12-11T10:05:31.379Z,18.50
2022-12-11T10:10:43.465Z,18.50
2022-12-11T10:15:52.185Z,18.40
2022-12-11T10:20:56.948Z,18.40
2022-12-11T10:26:06.134Z,18.50
2022-12-11T10:31:18.443Z,18.50
2022-12-11T10:36:28.613Z,18.50
2022-12-11T10:41:39.685Z,18.50
2022-12-11T10:46:43.381Z,18.60
2022-12-11T10:51:46.917Z,18.70
2022-12-11T10:56:52.066Z,18.60
2022-12-11T11:01:55.816Z,19.00
2022-12-11T11:07:13.764Z,18.70
2022-12-11T11:12:24.578Z,18.50
2022-12-11T11:17:33.622Z,18.50
2022-12-11T11:22:40.823Z,18.50
2022-12-11T11:27:49.335Z,18.40
2022-12-11T11:32:54.616Z,18.60
2022-12-11T11:38:04.374Z,18.40
2022-12-11T11:43:17.201Z,18.50
2022-12-11T11:48:35.458Z,18.40
2022-12-11T11:53:41.773Z,18.40
2022-12-11T11:58:50.313Z,18.40
2022-12-11T12:03:54.002Z,18.40
2022-12-11T12:09:09.343Z,18.30
2022-12-11T12:14:51.200Z,19.10
2022-12-11T12:19:50.299Z,18.90
2022-12-11T12:24:59.961Z,18.80
2022-12-11T12:30:07.759Z,18.60
2022-12-11T12:35:20.360Z,18.60
2022-12-11T12:40:30.261Z,18.50
2022-12-11T12:45:40.365Z,18.50
2022-12-11T12:50:45.969Z,18.50
2022-12-11T12:55:49.798Z,18.60
2022-12-11T13:00:55.258Z,18.50
2022-12-11T13:06:00.225Z,18.50
2022-12-11T13:11:05.650Z,18.50
2022-12-11T13:16:27.591Z,18.40
2022-12-11T13:21:33.872Z,18.40
2022-12-11T13:26:37.390Z,18.50
2022-12-11T13:31:45.496Z,18.50
2022-12-11T13:36:50.754Z,18.50
2022-12-11T13:41:56.133Z,18.60
2022-12-11T13:47:03.093Z,18.50
2022-12-11T13:52:07.515Z,18.50
2022-12-11T13:57:18.841Z,18.40
2022-12-11T14:02:26.759Z,18.40
2022-12-11T14:07:33.083Z,18.40
2022-12-11T14:12:37.254Z,18.40
2022-12-11T14:17:50.006Z,18.40
2022-12-11T14:23:06.600Z,18.60
2022-12-11T14:28:17.406Z,18.80
2022-12-11T14:33:24.353Z,18.60
2022-12-11T14:38:30.247Z,18.40
2022-12-11T14:43:36.787Z,18.40
2022-12-11T14:48:46.435Z,18.40
2022-12-11T14:53:52.333Z,18.60
2022-12-11T14:58:58.961Z,18.30
2022-12-11T15:04:17.039Z,18.30
2022-12-11T15:09:22.252Z,18.30
2022-12-11T15:14:26.556Z,18.40
2022-12-11T15:19:33.656Z,18.50
2022-12-11T15:24:39.678Z,18.30
2022-12-11T15:29:43.118Z,18.40
2022-12-11T15:34:50.257Z,18.30
2022-12-11T15:39:54.664Z,18.30
2022-12-11T15:44:58.520Z,18.30
2022-12-11T15:50:10.164Z,18.30
2022-12-11T15:55:14.194Z,18.40
2022-12-11T16:00:20.605Z,18.50
2022-12-11T16:05:26.049Z,18.50
2022-12-11T16:10:29.687Z,18.60
2022-12-11T16:15:33.216Z,18.60
2022-12-11T16:20:40.545Z,18.60
2022-12-11T16:25:44.927Z,18.70
2022-12-11T16:30:48.554Z,18.70
2022-12-11T16:35:53.565Z,18.50
2022-12-11T16:41:03.303Z,18.40
2022-12-11T16:46:07.269Z,18.30
2022-12-11T16:51:12.361Z,18.20
2022-12-11T16:56:15.831Z,18.10
2022-12-11T17:01:19.635Z,17.80
2022-12-11T17:06:24.835Z,17.80
2022-12-11T17:11:28.337Z,17.90
2022-12-11T17:16:32.550Z,18.00
2022-12-11T17:21:37.429Z,18.20
2022-12-11T17:26:40.967Z,18.30
2022-12-11T17:31:44.816Z,18.20
2022-12-11T17:36:49.660Z,18.10
2022-12-11T17:41:53.181Z,18.10
2022-12-11T17:46:56.686Z,18.20
2022-12-11T17:52:01.644Z,18.20
2022-12-11T17:57:05.297Z,18.20
2022-12-11T18:02:08.928Z,18.10
2022-12-11T18:07:13.867Z,18.00
2022-12-11T18:12:17.366Z,18.00
2022-12-11T18:17:21.034Z,18.00
2022-12-11T18:22:25.957Z,17.80
2022-12-11T18:27:29.449Z,17.70
2022-12-11T18:32:33.061Z,17.70
2022-12-11T18:37:38.260Z,17.70
2022-12-11T18:42:41.768Z,17.70
2022-12-11T18:47:45.285Z,17.80
2022-12-11T18:52:54.471Z,17.90
2022-12-11T18:57:58.130Z,17.90
2022-12-11T19:03:02.285Z,17.90
2022-12-11T19:08:07.412Z,17.90
2022-12-11T19:13:11.525Z,18.00
2022-12-11T19:18:15.108Z,18.00
2022-12-11T19:23:19.992Z,18.00
2022-12-11T19:28:23.358Z,18.00
2022-12-11T19:33:26.777Z,17.90
2022-12-11T19:38:31.580Z,18.10
2022-12-11T19:43:35.022Z,18.00
2022-12-11T19:48:38.952Z,18.20
2022-12-11T19:53:44.530Z,18.20
2022-12-11T20:03:34.757Z,19.20
2022-12-11T20:08:46.209Z,19.20
2022-12-11T20:13:50.153Z,19.20
2022-12-11T20:18:55.970Z,19.00
2022-12-11T20:23:59.548Z,19.00
2022-12-11T20:29:05.407Z,19.00
2022-12-11T20:34:10.282Z,19.00
2022-12-11T20:39:13.744Z,19.00
2022-12-11T20:44:17.282Z,19.00
2022-12-11T20:49:22.320Z,19.10
2022-12-11T20:54:25.778Z,19.10
2022-12-11T20:59:29.218Z,19.10
2022-12-11T21:04:34.134Z,19.10
2022-12-11T21:09:38.869Z,19.00
2022-12-11T21:14:42.552Z,19.00
2022-12-11T21:19:47.466Z,19.10
2022-12-11T21:24:50.920Z,19.00
2022-12-11T21:29:54.419Z,19.00
2022-12-11T21:34:59.936Z,18.90
2022-12-11T21:40:03.566Z,18.90
2022-12-11T21:45:52.311Z,18.90
2022-12-11T21:50:32.942Z,18.90
2022-12-11T21:55:36.514Z,18.90
2022-12-11T22:00:40.703Z,18.80
2022-12-11T22:05:45.724Z,18.80
2022-12-11T22:10:49.309Z,19.00
2022-12-11T22:15:52.858Z,18.90
2022-12-11T22:20:58.034Z,18.90
2022-12-11T22:26:01.608Z,18.80
2022-12-11T22:31:05.232Z,18.90
2022-12-11T22:36:11.820Z,18.90
2022-12-11T22:41:22.046Z,18.80
2022-12-11T22:46:27.420Z,18.80
2022-12-11T22:51:32.307Z,18.80
2022-12-11T22:56:35.825Z,18.80
2022-12-11T23:01:39.338Z,18.80
2022-12-11T23:06:44.304Z,18.90
2022-12-11T23:11:47.757Z,18.80
2022-12-11T23:16:51.351Z,18.80
2022-12-11T23:21:56.300Z,18.80
2022-12-11T23:26:59.679Z,18.70
2022-12-11T23:32:04.014Z,18.70
2022-12-11T23:37:08.851Z,18.80
2022-12-11T23:42:12.347Z,18.80
2022-12-11T23:47:15.838Z,18.70
2022-12-11T23:52:22.778Z,18.70
2022-12-11T23:57:26.275Z,18.80
